Time;durP1;ratioP1;P1;durP2;ratioP2;P2;SDS_P1;SDS_P2;PMS_P1;PMS_P2;Temp;Humidity;BMP_temperature;BMP_pressure;BME280_temperature;BME280_humidity;BME280_pressure;Samples;Min_cycle;Max_cycle;Signal;HPM_P1;HPM_P2
2023/03/20 00:02:41;;;;;;;22.30;7.50;;;;;;;6.56;100.00;101805.06;10468662;28;20040;-78
2023/03/20 00:07:41;;;;;;;14.90;8.95;;;;;;;6.64;100.00;101807.38;10440461;28;20045;-77
2023/03/20 00:12:42;;;;;;;15.15;8.48;;;;;;;6.66;100.00;101806.69;10488834;28;20124;-77
2023/03/20 00:17:43;;;;;;;17.13;8.57;;;;;;;6.69;100.00;101801.72;10489614;28;20033;-77
2023/03/20 00:22:43;;;;;;;15.00;8.63;;;;;;;6.70;100.00;101797.44;10460763;28;20835;-77
2023/03/20 00:27:44;;;;;;;19.77;9.65;;;;;;;6.68;100.00;101802.50;10417661;28;20132;-77
2023/03/20 00:32:45;;;;;;;16.13;8.55;;;;;;;6.70;100.00;101810.44;10431434;28;20044;-77
2023/03/20 00:37:46;;;;;;;21.30;9.23;;;;;;;6.72;100.00;101812.38;10487109;28;20064;-77
2023/03/20 00:42:50;;;;;;;17.58;11.68;;;;;;;6.71;100.00;101802.75;10451423;28;20041;-77
2023/03/20 00:47:50;;;;;;;16.55;9.57;;;;;;;6.72;100.00;101795.88;10443720;28;20048;-78
2023/03/20 00:52:51;;;;;;;17.25;10.95;;;;;;;6.75;100.00;101784.00;10444260;28;20040;-77
2023/03/20 00:57:59;;;;;;;15.82;9.98;;;;;;;6.77;100.00;101776.31;10443349;28;20032;-77
2023/03/20 01:03:00;;;;;;;21.33;10.27;;;;;;;6.83;100.00;101762.84;10440601;28;20119;-77
2023/03/20 01:08:01;;;;;;;16.00;10.10;;;;;;;6.81;100.00;101754.03;10407486;28;20045;-78
2023/03/20 01:13:01;;;;;;;21.15;11.50;;;;;;;6.78;100.00;101745.97;10428928;28;20061;-77
2023/03/20 01:18:02;;;;;;;19.63;9.80;;;;;;;6.74;100.00;101750.06;10400942;28;20490;-77
2023/03/20 01:23:02;;;;;;;20.17;10.13;;;;;;;6.75;100.00;101757.97;10468344;28;20045;-78
2023/03/20 01:28:10;;;;;;;17.73;11.38;;;;;;;6.69;100.00;101756.59;10480673;28;20047;-77
2023/03/20 01:33:18;;;;;;;16.38;10.73;;;;;;;6.49;100.00;101775.84;10406861;28;20038;-78
2023/03/20 01:38:23;;;;;;;26.17;13.65;;;;;;;6.42;100.00;101801.34;10360390;28;20033;-77
2023/03/20 01:43:24;;;;;;;18.23;10.52;;;;;;;6.47;100.00;101793.94;10449967;28;20456;-77
2023/03/20 01:48:30;;;;;;;20.05;9.77;;;;;;;6.48;100.00;101785.34;10440494;28;20047;-77
2023/03/20 01:53:31;;;;;;;24.00;13.52;;;;;;;6.20;100.00;101777.97;10456628;28;20037;-77
2023/03/20 01:58:36;;;;;;;20.70;12.73;;;;;;;5.90;100.00;101795.47;10430780;28;20072;-78
2023/03/20 02:03:37;;;;;;;25.02;15.60;;;;;;;5.74;100.00;101803.66;10438004;28;20136;-77
2023/03/20 02:08:48;;;;;;;27.83;15.55;;;;;;;5.82;100.00;101789.63;10476129;28;20060;-77
2023/03/20 02:13:53;;;;;;;29.87;18.83;;;;;;;5.77;100.00;101784.84;10477971;28;20070;-77
2023/03/20 02:18:55;;;;;;;30.60;18.10;;;;;;;5.61;100.00;101782.66;10444873;28;20070;-77
2023/03/20 02:24:08;;;;;;;30.67;16.45;;;;;;;5.43;100.00;101785.56;10459684;28;20037;-77
2023/03/20 02:29:53;;;;;;;30.55;15.18;;;;;;;5.28;100.00;101782.59;10454518;28;20040;-77
2023/03/20 02:35:14;;;;;;;27.48;16.73;;;;;;;5.15;100.00;101765.06;10434321;28;20116;-77
2023/03/20 02:40:24;;;;;;;33.50;17.27;;;;;;;4.93;100.00;101757.19;10448158;28;20118;-77
2023/03/20 02:45:35;;;;;;;20.92;14.40;;;;;;;4.89;100.00;101770.66;10437517;28;20120;-77
2023/03/20 02:51:08;;;;;;;27.73;17.93;;;;;;;4.59;100.00;101782.81;10456672;28;20064;-77
2023/03/20 02:56:30;;;;;;;23.17;14.88;;;;;;;4.41;100.00;101796.91;10439846;28;20040;-77
2023/03/20 03:01:34;;;;;;;24.27;12.32;;;;;;;4.39;100.00;101814.00;10381920;28;20143;-77
2023/03/20 03:06:36;;;;;;;19.52;13.07;;;;;;;4.48;100.00;101800.03;10426695;28;20489;-77
2023/03/20 03:11:38;;;;;;;16.02;10.32;;;;;;;4.55;100.00;101803.31;10423381;28;20052;-77
2023/03/20 03:16:39;;;;;;;18.98;9.82;;;;;;;4.59;100.00;101794.09;10414487;28;20037;-77
2023/03/20 03:21:40;;;;;;;14.98;11.65;;;;;;;4.67;100.00;101782.69;10448077;28;20124;-78
2023/03/20 03:26:41;;;;;;;17.00;10.68;;;;;;;4.64;100.00;101776.34;10435920;28;20497;-77
2023/03/20 03:31:42;;;;;;;17.10;11.90;;;;;;;4.53;100.00;101789.28;10479104;28;20427;-77
2023/03/20 03:37:02;;;;;;;22.63;11.93;;;;;;;4.49;100.00;101766.47;10455878;28;20041;-77
2023/03/20 03:42:05;;;;;;;24.70;14.55;;;;;;;4.39;100.00;101763.84;10476885;28;20052;-77
2023/03/20 03:47:10;;;;;;;17.40;11.52;;;;;;;4.23;100.00;101754.75;10445466;28;20496;-77
2023/03/20 03:52:13;;;;;;;21.42;10.05;;;;;;;4.10;100.00;101746.66;10397333;28;20048;-77
2023/03/20 03:57:15;;;;;;;19.45;10.93;;;;;;;3.92;100.00;101736.50;10445749;28;20427;-77
2023/03/20 04:02:16;;;;;;;25.60;11.63;;;;;;;3.90;100.00;101745.81;10427723;28;20033;-77
2023/03/20 04:07:17;;;;;;;18.17;11.13;;;;;;;3.77;100.00;101741.22;10445902;28;20037;-77
2023/03/20 04:12:39;;;;;;;22.63;12.13;;;;;;;3.70;100.00;101753.50;10453696;28;20045;-77
2023/03/20 04:17:39;;;;;;;21.50;12.35;;;;;;;3.69;100.00;101757.75;10445922;28;20529;-77
2023/03/20 04:22:40;;;;;;;18.15;11.80;;;;;;;3.70;100.00;101758.66;10440645;28;20029;-76
2023/03/20 04:27:40;;;;;;;18.85;10.65;;;;;;;3.73;100.00;101754.66;10417948;28;20033;-80
2023/03/20 04:32:41;;;;;;;26.50;12.85;;;;;;;3.80;100.00;101749.25;10452409;28;20111;-77
2023/03/20 04:37:41;;;;;;;21.15;12.05;;;;;;;3.91;100.00;101742.47;10474319;28;20071;-77
2023/03/20 04:42:42;;;;;;;17.88;10.88;;;;;;;3.93;100.00;101735.72;10407881;28;20111;-77
2023/03/20 04:47:42;;;;;;;18.38;11.13;;;;;;;4.02;100.00;101738.22;10415009;28;20056;-77
2023/03/20 04:52:46;;;;;;;22.35;10.82;;;;;;;4.05;100.00;101746.25;10430960;28;20481;-78
2023/03/20 04:57:46;;;;;;;23.15;14.15;;;;;;;4.02;100.00;101738.22;10398915;28;20030;-77
2023/03/20 05:02:47;;;;;;;21.20;13.40;;;;;;;4.01;100.00;101743.28;10420383;28;20442;-78
2023/03/20 05:07:48;;;;;;;22.27;10.55;;;;;;;3.87;100.00;101745.56;10474056;28;20067;-76
2023/03/20 05:12:48;;;;;;;17.08;9.23;;;;;;;3.88;100.00;101741.25;10442270;28;20424;-75
2023/03/20 05:17:49;;;;;;;21.80;10.88;;;;;;;3.96;100.00;101722.13;10434782;28;20071;-75
2023/03/20 05:22:50;;;;;;;18.70;10.15;;;;;;;4.06;100.00;101723.84;10445611;28;20437;-77
2023/03/20 05:27:50;;;;;;;16.58;10.48;;;;;;;4.08;100.00;101725.78;10445343;28;20047;-77
2023/03/20 05:32:51;;;;;;;18.25;11.15;;;;;;;4.19;100.00;101734.53;10422159;28;20132;-77
2023/03/20 05:37:51;;;;;;;21.77;11.90;;;;;;;4.28;100.00;101737.00;10427177;28;20069;-77
2023/03/20 05:42:52;;;;;;;18.00;9.77;;;;;;;4.32;100.00;101736.47;10442582;28;20103;-78
2023/03/20 05:47:52;;;;;;;18.00;10.40;;;;;;;4.38;100.00;101731.81;10436021;28;20120;-77
2023/03/20 05:52:53;;;;;;;21.63;11.45;;;;;;;4.52;100.00;101724.34;10402283;28;20302;-77
2023/03/20 05:57:53;;;;;;;23.25;12.13;;;;;;;4.54;100.00;101726.28;10466660;28;20116;-77
2023/03/20 06:02:55;;;;;;;22.70;12.95;;;;;;;4.68;100.00;101727.47;10465255;28;20056;-77
2023/03/20 06:07:55;;;;;;;24.13;12.47;;;;;;;4.72;100.00;101725.13;10408414;28;20540;-75
2023/03/20 06:12:59;;;;;;;;;;;;;;;4.81;100.00;101718.13;10419956;28;20038;-78
2023/03/20 06:18:00;;;;;;;24.08;12.80;;;;;;;4.84;100.00;101732.28;10471414;28;19927;-77
2023/03/20 06:23:00;;;;;;;22.55;12.50;;;;;;;4.88;100.00;101737.72;10426048;28;20047;-78
2023/03/20 06:28:01;;;;;;;25.77;11.57;;;;;;;4.91;100.00;101751.84;10419529;28;20131;-78
2023/03/20 06:33:02;;;;;;;22.85;11.65;;;;;;;5.02;100.00;101746.66;10410761;28;20416;-77
2023/03/20 06:38:02;;;;;;;26.35;13.73;;;;;;;5.01;100.00;101745.75;10450652;28;20056;-78
2023/03/20 06:43:03;;;;;;;26.10;14.93;;;;;;;5.07;100.00;101756.66;10445343;28;20063;-78
2023/03/20 06:48:07;;;;;;;17.15;10.48;;;;;;;5.11;100.00;101763.00;10479875;28;20032;-79
2023/03/20 06:53:08;;;;;;;18.00;10.52;;;;;;;5.24;100.00;101760.66;10430118;28;20040;-76
2023/03/20 06:58:08;;;;;;;13.18;9.43;;;;;;;5.26;100.00;101774.66;10429000;28;20483;-79
2023/03/20 07:03:10;;;;;;;23.95;11.88;;;;;;;5.40;100.00;101769.72;10440538;28;20116;-78
2023/03/20 07:08:10;;;;;;;17.02;10.48;;;;;;;5.43;100.00;101778.69;10470508;28;20067;-80
2023/03/20 07:13:11;;;;;;;18.08;10.40;;;;;;;5.55;100.00;101786.56;10461490;28;20043;-80
2023/03/20 07:18:12;;;;;;;24.67;10.25;;;;;;;5.69;100.00;101790.31;10408970;28;20037;-80
2023/03/20 07:23:12;;;;;;;18.90;9.35;;;;;;;5.89;100.00;101806.63;10411051;28;20470;-78
2023/03/20 07:28:13;;;;;;;17.88;11.45;;;;;;;6.04;100.00;101795.69;10438662;28;20123;-79
2023/03/20 07:33:14;;;;;;;25.30;12.00;;;;;;;6.15;100.00;101797.47;10455760;28;20462;-78
2023/03/20 07:38:14;;;;;;;26.85;12.85;;;;;;;6.21;100.00;101794.44;10449082;28;20043;-79
2023/03/20 07:43:15;;;;;;;16.35;9.85;;;;;;;6.24;100.00;101802.50;10389186;28;20033;-79
2023/03/20 07:48:16;;;;;;;20.00;9.00;;;;;;;6.32;100.00;101804.94;10405758;28;20033;-79
2023/03/20 07:53:16;;;;;;;20.55;10.48;;;;;;;6.44;100.00;101806.69;10418636;28;20113;-80
2023/03/20 07:58:17;;;;;;;15.88;9.07;;;;;;;6.69;100.00;101806.94;10389353;28;20057;-80
2023/03/20 08:03:17;;;;;;;21.60;9.65;;;;;;;6.87;100.00;101815.28;10461383;28;20040;-81
2023/03/20 08:08:18;;;;;;;25.30;10.25;;;;;;;7.04;100.00;101810.47;10452659;28;20068;-79
2023/03/20 08:13:18;;;;;;;27.83;9.25;;;;;;;7.35;100.00;101792.88;10430602;28;20492;-78
2023/03/20 08:18:21;;;;;;;25.13;9.00;;;;;;;7.48;100.00;101797.31;10406683;28;20052;-79
2023/03/20 08:23:21;;;;;;;17.95;8.38;;;;;;;7.48;100.00;101793.78;10476383;27;20430;-80
2023/03/20 08:28:22;;;;;;;14.52;7.38;;;;;;;7.40;100.00;101803.66;10487609;28;20085;-80
2023/03/20 08:33:22;;;;;;;14.18;7.78;;;;;;;7.32;100.00;101804.78;10488383;28;20036;-80
2023/03/20 08:38:23;;;;;;;16.02;8.77;;;;;;;7.31;100.00;101805.56;10484220;28;20060;-80
2023/03/20 08:43:24;;;;;;;13.57;6.80;;;;;;;7.30;100.00;101808.97;10469428;28;20110;-79
2023/03/20 08:48:25;;;;;;;16.17;8.13;;;;;;;7.42;100.00;101807.28;10486412;28;20076;-80
2023/03/20 08:53:26;;;;;;;13.30;7.20;;;;;;;7.43;100.00;101808.16;10483756;28;20063;-79
2023/03/20 08:58:27;;;;;;;13.00;6.60;;;;;;;7.51;100.00;101807.06;10479242;28;20037;-80
2023/03/20 09:03:28;;;;;;;15.30;6.33;;;;;;;7.56;100.00;101805.69;10451019;28;20055;-82
2023/03/20 09:08:28;;;;;;;11.38;4.97;;;;;;;7.72;100.00;101796.41;10468655;28;20140;-78
2023/03/20 09:13:29;;;;;;;14.73;7.32;;;;;;;7.64;100.00;101798.47;10487294;28;20040;-78
2023/03/20 09:18:30;;;;;;;9.90;6.15;;;;;;;7.42;100.00;101798.53;10482925;28;20134;-82
2023/03/20 09:23:30;;;;;;;11.52;5.05;;;;;;;7.46;100.00;101801.50;10480260;28;20072;-78
2023/03/20 09:28:31;;;;;;;7.45;4.03;;;;;;;7.64;100.00;101807.19;10485892;28;20032;-78
2023/03/20 09:33:32;;;;;;;12.88;4.80;;;;;;;7.83;100.00;101815.47;10485088;28;20115;-78
2023/03/20 09:38:32;;;;;;;13.13;5.32;;;;;;;7.79;100.00;101814.31;10483881;28;20036;-77
2023/03/20 09:43:54;;;;;;;13.63;4.90;;;;;;;8.06;100.00;101801.50;10518713;28;20090;-78
2023/03/20 09:49:07;;;;;;;8.40;4.05;;;;;;;8.17;100.00;101813.63;10476738;28;20613;-79
2023/03/20 09:54:39;;;;;;;7.47;3.88;;;;;;;8.00;100.00;101814.09;10482595;28;20131;-79
2023/03/20 09:59:40;;;;;;;8.60;4.55;;;;;;;7.82;100.00;101806.72;10484713;28;20435;-78
2023/03/20 10:04:40;;;;;;;10.68;3.72;;;;;;;7.71;100.00;101805.94;10480704;28;20115;-78
2023/03/20 10:09:41;;;;;;;8.43;4.55;;;;;;;7.53;100.00;101821.09;10499923;28;20045;-78
2023/03/20 10:15:02;;;;;;;14.98;4.55;;;;;;;7.29;100.00;101809.75;10430387;28;20561;-77
2023/03/20 10:20:08;;;;;;;10.65;4.43;;;;;;;6.88;100.00;101817.09;10442703;28;20045;-78
2023/03/20 10:25:11;;;;;;;7.50;4.28;;;;;;;6.53;100.00;101819.50;10474987;28;20133;-78
2023/03/20 10:30:30;;;;;;;12.45;5.63;;;;;;;6.45;100.00;101821.50;10482614;28;20124;-78
2023/03/20 10:35:38;;;;;;;9.90;4.47;;;;;;;6.78;100.00;101819.75;10483786;28;20036;-78
2023/03/20 10:40:40;;;;;;;11.40;3.58;;;;;;;7.10;100.00;101823.03;10456130;28;20103;-78
2023/03/20 10:45:59;;;;;;;7.82;3.92;;;;;;;7.08;100.00;101815.13;10398577;28;20044;-78
2023/03/20 10:51:01;;;;;;;7.45;3.30;;;;;;;7.16;100.00;101808.81;10411145;28;20030;-78
2023/03/20 10:56:07;;;;;;;9.85;4.20;;;;;;;7.28;100.00;101801.00;10398758;28;20068;-78
2023/03/20 11:01:08;;;;;;;6.85;3.33;;;;;;;7.39;100.00;101803.53;10392137;28;20041;-78
2023/03/20 11:06:18;;;;;;;11.68;5.40;;;;;;;7.47;100.00;101789.38;10399593;28;20045;-78
2023/03/20 11:11:26;;;;;;;11.40;3.90;;;;;;;7.57;100.00;101783.19;10399899;28;20087;-77
2023/03/20 11:16:31;;;;;;;14.38;5.45;;;;;;;7.81;100.00;101784.06;10407489;28;20033;-78
2023/03/20 11:21:32;;;;;;;9.82;4.20;;;;;;;8.01;100.00;101780.31;10396013;28;20232;-78
2023/03/20 11:26:40;;;;;;;7.65;4.00;;;;;;;7.99;100.00;101775.78;10430022;28;20033;-78
2023/03/20 11:31:41;;;;;;;12.65;4.35;;;;;;;8.33;100.00;101786.97;10410565;28;20038;-78
2023/03/20 11:36:56;;;;;;;8.73;3.92;;;;;;;8.66;100.00;101779.75;10401513;28;20501;-78
2023/03/20 11:41:58;;;;;;;8.50;3.88;;;;;;;8.71;100.00;101761.78;10422134;28;20068;-79
2023/03/20 11:47:03;;;;;;;10.23;4.20;;;;;;;8.72;100.00;101754.88;10439631;28;20041;-79
2023/03/20 11:52:11;;;;;;;13.45;4.32;;;;;;;9.05;100.00;101745.81;10411889;28;20092;-78
2023/03/20 11:57:37;;;;;;;7.00;3.45;;;;;;;8.88;100.00;101729.03;10394817;28;20033;-79
2023/03/20 12:02:41;;;;;;;10.13;5.93;;;;;;;8.88;100.00;101728.09;10446358;28;20045;-78
2023/03/20 12:07:41;;;;;;;11.48;3.85;;;;;;;8.77;100.00;101725.66;10441453;28;20036;-78
2023/03/20 12:12:53;;;;;;;15.55;4.43;;;;;;;8.95;100.00;101730.31;10398198;28;20496;-78
2023/03/20 12:17:57;;;;;;;16.75;7.15;;;;;;;9.23;100.00;101714.81;10424927;28;20062;-79
2023/03/20 12:23:08;;;;;;;9.45;3.63;;;;;;;9.16;100.00;101710.00;10420582;28;20042;-79
2023/03/20 12:28:37;;;;;;;9.57;5.10;;;;;;;9.54;100.00;101715.94;10409725;28;20049;-78
2023/03/20 12:34:12;;;;;;;13.40;4.25;;;;;;;10.17;100.00;101711.22;10417387;28;20048;-78
2023/03/20 12:39:22;;;;;;;12.95;4.75;;;;;;;10.71;100.00;101703.19;10464970;28;20045;-79
2023/03/20 12:44:37;;;;;;;12.75;4.22;;;;;;;10.25;100.00;101701.25;10428396;28;20046;-78
2023/03/20 12:50:21;;;;;;;12.05;4.28;;;;;;;9.76;100.00;101699.94;10457487;28;20120;-78
2023/03/20 12:55:46;;;;;;;9.80;4.90;;;;;;;9.76;100.00;101696.41;10400199;28;20499;-78
2023/03/20 13:00:49;;;;;;;12.23;3.88;;;;;;;10.13;100.00;101685.66;10450661;28;20045;-78
2023/03/20 13:06:16;;;;;;;8.10;4.18;;;;;;;10.33;100.00;101686.00;10429671;28;20493;-78
2023/03/20 13:11:23;;;;;;;7.43;3.88;;;;;;;10.27;100.00;101674.34;10435338;28;20036;-78
2023/03/20 13:16:53;;;;;;;10.98;4.15;;;;;;;10.19;100.00;101659.88;10430764;28;20036;-79
2023/03/20 13:22:37;;;;;;;16.08;5.05;;;;;;;10.10;100.00;101669.78;10441678;28;20044;-78
2023/03/20 13:27:48;;;;;;;12.93;4.28;;;;;;;10.05;100.00;101653.81;10396103;28;20064;-78
2023/03/20 13:33:13;;;;;;;11.65;4.35;;;;;;;9.85;100.00;101665.63;10413743;28;20163;-78
2023/03/20 13:38:17;;;;;;;6.40;4.95;;;;;;;9.65;100.00;101654.81;10426441;28;20045;-78
2023/03/20 13:43:26;;;;;;;12.45;4.82;;;;;;;9.74;100.00;101649.28;10453711;28;20083;-78
2023/03/20 13:48:35;;;;;;;8.70;3.85;;;;;;;9.83;100.00;101647.25;10372530;28;20041;-78
2023/03/20 13:53:54;;;;;;;8.90;4.15;;;;;;;9.97;100.00;101655.06;10433986;28;20033;-79
2023/03/20 13:59:02;;;;;;;8.32;4.70;;;;;;;10.03;100.00;101646.66;10417039;28;20033;-78
2023/03/20 14:04:03;;;;;;;9.10;3.50;;;;;;;10.01;100.00;101648.28;10405267;28;20053;-78
2023/03/20 14:09:03;;;;;;;9.15;4.75;;;;;;;9.82;100.00;101637.59;10423976;28;20677;-79
2023/03/20 14:14:11;;;;;;;11.20;3.50;;;;;;;9.79;100.00;101641.72;10404640;28;20037;-79
2023/03/20 14:19:17;;;;;;;14.30;4.43;;;;;;;9.84;100.00;101635.97;10460761;28;20082;-78
2023/03/20 14:24:19;;;;;;;9.30;3.25;;;;;;;9.86;100.00;101628.22;10451414;28;20559;-79
2023/03/20 14:29:31;;;;;;;10.48;4.18;;;;;;;9.92;100.00;101627.72;10420051;28;20044;-78
2023/03/20 14:34:46;;;;;;;10.75;4.55;;;;;;;9.98;100.00;101628.97;10417541;28;20082;-78
2023/03/20 14:39:48;;;;;;;13.82;4.80;;;;;;;9.79;100.00;101618.19;10421227;28;20060;-77
2023/03/20 14:45:15;;;;;;;14.10;4.90;;;;;;;9.70;100.00;101631.59;10459224;28;20131;-77
2023/03/20 14:50:24;;;;;;;8.98;3.78;;;;;;;9.77;100.00;101617.19;10440078;28;20088;-75
2023/03/20 14:55:26;;;;;;;16.17;6.03;;;;;;;9.70;100.00;101606.34;10401145;28;20037;-79
2023/03/20 15:00:28;;;;;;;;;;;;;;;9.75;100.00;101590.03;10440593;28;20463;-77
2023/03/20 15:05:31;;;;;;;10.43;4.07;;;;;;;9.83;100.00;101581.88;10394191;28;19960;-79
2023/03/20 15:10:33;;;;;;;6.22;4.10;;;;;;;9.81;100.00;101587.81;10442650;28;20350;-78
2023/03/20 15:15:34;;;;;;;11.63;3.58;;;;;;;9.74;100.00;101589.16;10440433;28;20048;-78
2023/03/20 15:20:34;;;;;;;11.48;4.22;;;;;;;9.52;100.00;101587.81;10421902;28;20064;-77
2023/03/20 15:25:38;;;;;;;15.77;3.97;;;;;;;9.39;100.00;101578.25;10383851;28;20038;-80
2023/03/20 15:30:39;;;;;;;9.75;4.35;;;;;;;9.52;100.00;101581.66;10423166;28;20041;-77
2023/03/20 15:35:40;;;;;;;8.68;4.03;;;;;;;9.62;100.00;101583.16;10377683;28;20505;-79
2023/03/20 15:40:40;;;;;;;6.45;3.28;;;;;;;9.62;100.00;101570.97;10453640;28;20045;-78
2023/03/20 15:45:43;;;;;;;8.35;4.13;;;;;;;9.55;100.00;101560.94;10407161;28;20488;-76
2023/03/20 15:51:05;;;;;;;9.00;3.42;;;;;;;9.52;100.00;101566.91;10434997;28;20128;-77
2023/03/20 15:56:13;;;;;;;12.18;4.35;;;;;;;9.51;100.00;101557.25;10412347;28;20034;-77
2023/03/20 16:01:16;;;;;;;7.07;3.55;;;;;;;9.44;100.00;101562.91;10437318;28;20104;-76
2023/03/20 16:06:19;;;;;;;7.15;3.80;;;;;;;9.33;100.00;101559.56;10473435;28;20040;-77
2023/03/20 16:11:20;;;;;;;8.55;4.60;;;;;;;9.28;100.00;101555.78;10462812;28;20037;-78
2023/03/20 16:16:22;;;;;;;9.20;4.00;;;;;;;9.35;100.00;101567.53;10449712;28;20484;-76
2023/03/20 16:21:31;;;;;;;13.10;5.20;;;;;;;9.13;100.00;101565.22;10434703;28;20045;-76
2023/03/20 16:26:35;;;;;;;9.95;4.13;;;;;;;9.05;100.00;101560.41;10409954;28;20033;-77
2023/03/20 16:31:36;;;;;;;8.73;4.43;;;;;;;8.90;100.00;101570.78;10427426;28;20044;-77
2023/03/20 16:36:37;;;;;;;13.30;4.43;;;;;;;8.88;100.00;101559.34;10414116;28;20055;-77
2023/03/20 16:41:38;;;;;;;10.75;4.60;;;;;;;8.84;100.00;101562.53;10434899;28;20044;-81
2023/03/20 16:47:00;;;;;;;7.63;3.63;;;;;;;8.78;100.00;101563.03;10430283;28;20037;-79
2023/03/20 16:52:02;;;;;;;7.97;5.07;;;;;;;8.70;100.00;101565.94;10454573;28;20045;-79
2023/03/20 16:57:05;;;;;;;12.60;3.85;;;;;;;8.69;100.00;101569.34;10435201;28;20056;-80
2023/03/20 17:02:24;;;;;;;14.27;4.90;;;;;;;8.60;100.00;101567.03;10444964;28;20049;-79
2023/03/20 17:07:26;;;;;;;12.23;4.60;;;;;;;8.60;100.00;101567.03;10416212;28;20825;-80
2023/03/20 17:12:30;;;;;;;7.22;2.67;;;;;;;8.62;100.00;101558.50;10467657;28;20033;-79
2023/03/20 17:17:30;;;;;;;8.73;3.40;;;;;;;8.53;100.00;101557.91;10463754;28;20083;-83
2023/03/20 17:22:32;;;;;;;18.75;5.95;;;;;;;8.48;100.00;101567.97;10444255;28;20037;-78
2023/03/20 17:27:33;;;;;;;14.05;5.55;;;;;;;8.44;100.00;101565.06;10443215;28;20225;-78
2023/03/20 17:32:33;;;;;;;8.45;6.18;;;;;;;8.43;100.00;101560.66;10442244;28;20090;-78
2023/03/20 17:37:34;;;;;;;7.50;3.42;;;;;;;8.42;100.00;101551.91;10431381;28;20123;-77
2023/03/20 17:42:34;;;;;;;5.72;2.95;;;;;;;8.32;100.00;101563.44;10403118;28;20033;-79
2023/03/20 17:47:35;;;;;;;12.25;4.25;;;;;;;8.34;100.00;101569.66;10464438;28;20031;-79
2023/03/20 17:52:35;;;;;;;12.82;4.75;;;;;;;8.29;100.00;101571.06;10446723;28;20438;-78
2023/03/20 17:57:37;;;;;;;19.83;7.35;;;;;;;8.30;100.00;101570.25;10476875;28;20128;-82
2023/03/20 18:02:38;;;;;;;10.52;5.68;;;;;;;8.25;100.00;101578.56;10476908;28;20124;-78
2023/03/20 18:07:38;;;;;;;8.07;4.38;;;;;;;8.27;100.00;101576.94;10444809;28;20117;-79
2023/03/20 18:12:39;;;;;;;9.07;4.55;;;;;;;8.20;100.00;101576.53;10462960;28;20474;-80
2023/03/20 18:17:39;;;;;;;22.13;5.32;;;;;;;8.16;100.00;101577.13;10444774;28;20459;-80
2023/03/20 18:22:40;;;;;;;10.35;5.63;;;;;;;8.16;100.00;101566.69;10437466;28;20120;-79
2023/03/20 18:27:41;;;;;;;16.35;4.53;;;;;;;8.15;100.00;101577.91;10440939;28;20075;-79
2023/03/20 18:32:42;;;;;;;8.10;4.57;;;;;;;8.11;100.00;101573.28;10442784;28;20428;-78
2023/03/20 18:37:42;;;;;;;16.60;6.13;;;;;;;8.11;100.00;101575.00;10441706;28;20103;-78
2023/03/20 18:42:43;;;;;;;14.48;5.35;;;;;;;8.27;100.00;101580.47;10424463;28;20084;-78
2023/03/20 18:47:44;;;;;;;11.65;5.55;;;;;;;8.31;100.00;101573.75;10447202;28;20056;-78
2023/03/20 18:52:45;;;;;;;12.25;7.03;;;;;;;8.40;100.00;101565.66;10432377;28;20490;-78
2023/03/20 18:57:45;;;;;;;24.55;6.05;;;;;;;8.38;100.00;101569.06;10408625;28;20057;-78
2023/03/20 19:02:49;;;;;;;11.60;4.85;;;;;;;8.38;100.00;101573.38;10409992;28;20550;-78
2023/03/20 19:07:50;;;;;;;14.68;5.05;;;;;;;8.40;100.00;101576.09;10423945;28;20038;-78
2023/03/20 19:12:51;;;;;;;18.05;5.07;;;;;;;8.47;100.00;101566.16;10427851;28;20036;-78
2023/03/20 19:17:52;;;;;;;8.87;4.83;;;;;;;8.45;100.00;101570.38;10449783;28;20530;-78
2023/03/20 19:22:52;;;;;;;12.32;5.20;;;;;;;8.51;100.00;101564.72;10442738;28;20033;-78
2023/03/20 19:27:53;;;;;;;15.55;5.35;;;;;;;8.46;100.00;101561.75;10448434;28;20060;-78
2023/03/20 19:32:54;;;;;;;13.32;6.20;;;;;;;8.52;100.00;101556.09;10449412;28;20135;-78
2023/03/20 19:37:54;;;;;;;14.75;5.15;;;;;;;8.48;100.00;101561.88;10463491;28;20443;-77
2023/03/20 19:42:55;;;;;;;10.32;5.53;;;;;;;8.41;100.00;101557.03;10449465;28;20510;-78
2023/03/20 19:47:56;;;;;;;15.68;4.75;;;;;;;8.48;100.00;101560.16;10432557;28;20420;-78
2023/03/20 19:52:57;;;;;;;9.93;6.05;;;;;;;8.47;100.00;101557.44;10445483;28;20087;-78
2023/03/20 19:57:59;;;;;;;18.65;6.10;;;;;;;8.50;100.00;101552.47;10423800;28;20045;-78
2023/03/20 20:03:00;;;;;;;15.57;6.93;;;;;;;8.49;100.00;101553.28;10436971;28;20090;-78
2023/03/20 20:08:02;;;;;;;13.38;6.05;;;;;;;8.56;100.00;101547.66;10429311;28;20135;-78
2023/03/20 20:13:03;;;;;;;20.40;7.45;;;;;;;8.50;100.00;101545.53;10443086;28;20041;-78
2023/03/20 20:18:03;;;;;;;22.90;8.77;;;;;;;8.57;100.00;101544.25;10468072;28;20068;-78
2023/03/20 20:23:09;;;;;;;14.13;5.47;;;;;;;8.60;100.00;101546.16;10422224;28;20038;-78
2023/03/20 20:28:10;;;;;;;17.63;5.93;;;;;;;8.64;100.00;101549.09;10402622;28;20034;-78
2023/03/20 20:33:11;;;;;;;8.48;4.38;;;;;;;8.73;100.00;101548.78;10403610;28;20152;-78
2023/03/20 20:38:12;;;;;;;18.83;8.63;;;;;;;8.67;100.00;101543.16;10438625;28;20042;-78
2023/03/20 20:43:12;;;;;;;13.65;6.22;;;;;;;8.60;100.00;101547.06;10420555;28;20068;-78
2023/03/20 20:48:13;;;;;;;27.55;7.50;;;;;;;8.62;100.00;101545.47;10405530;28;20071;-77
2023/03/20 20:53:13;;;;;;;14.10;8.10;;;;;;;8.75;100.00;101536.72;10436103;28;20487;-78
2023/03/20 20:58:14;;;;;;;16.42;7.63;;;;;;;8.77;100.00;101545.56;10421234;28;20116;-79
2023/03/20 21:03:15;;;;;;;21.02;7.20;;;;;;;8.72;100.00;101526.09;10442508;28;20033;-79
2023/03/20 21:08:17;;;;;;;15.25;7.55;;;;;;;8.74;100.00;101536.63;10444731;28;20064;-78
2023/03/20 21:13:17;;;;;;;;;;;;;;;8.82;100.00;101535.44;10438245;28;20037;-78
2023/03/20 21:18:18;;;;;;;17.00;6.90;;;;;;;8.82;100.00;101536.31;10425382;28;20344;-79
2023/03/20 21:23:18;;;;;;;16.50;7.40;;;;;;;8.84;100.00;101539.06;10443744;28;20363;-78
2023/03/20 21:28:19;;;;;;;17.10;7.35;;;;;;;8.86;100.00;101534.84;10427142;28;20132;-78
2023/03/20 21:33:20;;;;;;;12.45;7.13;;;;;;;8.88;100.00;101533.22;10472429;28;20492;-77
2023/03/20 21:38:20;;;;;;;14.18;6.43;;;;;;;8.93;100.00;101537.03;10446936;28;20124;-78
2023/03/20 21:43:21;;;;;;;17.02;7.25;;;;;;;8.87;100.00;101540.94;10479036;28;20060;-78
2023/03/20 21:48:21;;;;;;;14.43;6.90;;;;;;;8.89;100.00;101534.13;10462880;28;20093;-78
2023/03/20 21:53:22;;;;;;;15.82;7.20;;;;;;;8.94;100.00;101530.09;10447465;28;20113;-78
2023/03/20 21:58:22;;;;;;;16.13;7.63;;;;;;;9.03;100.00;101541.13;10446288;28;20047;-78
2023/03/20 22:03:23;;;;;;;14.73;6.70;;;;;;;9.00;100.00;101538.31;10440246;28;20128;-78
2023/03/20 22:08:23;;;;;;;14.27;9.27;;;;;;;8.94;100.00;101537.94;10442674;28;20041;-79
2023/03/20 22:13:24;;;;;;;20.45;8.40;;;;;;;8.95;100.00;101529.28;10425762;28;20098;-78
2023/03/20 22:18:24;;;;;;;13.25;8.20;;;;;;;8.93;100.00;101543.94;10437901;28;20095;-78
2023/03/20 22:23:25;;;;;;;13.38;7.80;;;;;;;8.87;100.00;101538.34;10438662;28;20123;-78
2023/03/20 22:28:26;;;;;;;19.58;7.20;;;;;;;8.79;100.00;101536.13;10445447;28;20046;-80
2023/03/20 22:33:27;;;;;;;20.77;6.45;;;;;;;8.69;100.00;101538.94;10455169;28;20045;-78
2023/03/20 22:38:27;;;;;;;18.23;6.78;;;;;;;8.59;100.00;101537.44;10431967;28;20041;-78
2023/03/20 22:43:28;;;;;;;14.18;7.60;;;;;;;8.68;100.00;101531.91;10389367;28;20041;-78
2023/03/20 22:48:28;;;;;;;18.35;8.60;;;;;;;8.62;100.00;101535.03;10436519;28;20124;-78
2023/03/20 22:53:31;;;;;;;17.73;8.95;;;;;;;8.63;100.00;101528.09;10427388;28;20388;-78
2023/03/20 22:58:31;;;;;;;15.05;7.35;;;;;;;8.61;100.00;101529.69;10425007;28;20045;-78
2023/03/20 23:03:32;;;;;;;13.73;7.50;;;;;;;8.62;100.00;101527.19;10478147;28;20086;-78